Time;durP1;ratioP1;P1;durP2;ratioP2;P2;SDS_P1;SDS_P2;PMS_P1;PMS_P2;Temp;Humidity;BMP_temperature;BMP_pressure;BME280_temperature;BME280_humidity;BME280_pressure;Samples;Min_cycle;Max_cycle;Signal;HPM_P1;HPM_P2
2023/02/09 00:01:05;;;;;;;21.58;8.63;;;-2.60;91.30;;;;;;4953624;28;92870;-76
2023/02/09 00:03:31;;;;;;;26.13;9.32;;;-2.60;91.40;;;;;;4957671;28;92739;-76
2023/02/09 00:05:59;;;;;;;24.77;9.18;;;-2.70;91.30;;;;;;4959648;28;91734;-76
2023/02/09 00:08:26;;;;;;;28.85;9.43;;;-2.70;91.60;;;;;;4956831;28;92504;-76
2023/02/09 00:10:51;;;;;;;21.83;9.43;;;-2.70;91.30;;;;;;4952630;28;92841;-77
2023/02/09 00:13:23;;;;;;;22.88;9.20;;;-2.70;91.60;;;;;;4947567;28;93179;-75
2023/02/09 00:15:53;;;;;;;24.95;10.00;;;-2.70;91.40;;;;;;4955168;28;92629;-77
2023/02/09 00:18:20;;;;;;;26.67;9.63;;;-2.80;91.40;;;;;;4955498;28;93169;-76
2023/02/09 00:20:58;;;;;;;22.90;9.50;;;-2.80;91.80;;;;;;4954264;28;92782;-76
2023/02/09 00:23:24;;;;;;;24.58;9.30;;;-2.80;91.50;;;;;;4956042;28;93176;-76
2023/02/09 00:25:50;;;;;;;22.05;9.40;;;-2.80;91.20;;;;;;4953360;28;92568;-76
2023/02/09 00:28:16;;;;;;;22.23;8.98;;;-2.80;91.70;;;;;;4955896;28;93733;-77
2023/02/09 00:30:42;;;;;;;25.08;9.27;;;-2.80;92.00;;;;;;4956477;28;91945;-76
2023/02/09 00:33:08;;;;;;;22.60;9.13;;;-2.80;91.80;;;;;;4956534;28;92414;-77
2023/02/09 00:35:34;;;;;;;27.40;10.07;;;-2.80;91.40;;;;;;4956815;28;92150;-75
2023/02/09 00:37:59;;;;;;;23.17;9.40;;;-2.90;92.00;;;;;;4948645;28;93213;-76
2023/02/09 00:40:25;;;;;;;25.48;9.63;;;-2.90;91.80;;;;;;4954811;28;93898;-76
2023/02/09 00:42:51;;;;;;;24.35;10.07;;;-2.90;91.90;;;;;;4956107;28;93893;-77
2023/02/09 00:45:16;;;;;;;27.10;9.60;;;-2.90;92.10;;;;;;4956236;28;92368;-76
2023/02/09 00:47:52;;;;;;;20.83;8.35;;;-2.90;91.80;;;;;;5023612;22;80228;-71
2023/02/09 00:50:18;;;;;;;23.52;9.00;;;-2.90;91.70;;;;;;5016151;28;82000;-71
2023/02/09 00:52:43;;;;;;;31.38;10.77;;;-3.00;91.60;;;;;;5016816;28;80752;-70
2023/02/09 00:55:09;;;;;;;19.08;7.63;;;-2.90;91.50;;;;;;5014909;28;83066;-71
2023/02/09 00:57:35;;;;;;;28.02;9.93;;;-2.90;91.40;;;;;;5015197;28;81071;-72
2023/02/09 01:00:02;;;;;;;29.02;11.65;;;-2.90;91.30;;;;;;5014979;28;81035;-71
2023/02/09 01:02:28;;;;;;;25.88;9.98;;;-3.00;91.50;;;;;;5013297;28;83041;-70
2023/02/09 01:04:54;;;;;;;24.65;8.50;;;-3.00;91.40;;;;;;5015406;28;83999;-71
2023/02/09 01:07:19;;;;;;;23.88;8.50;;;-3.00;92.00;;;;;;5013439;28;81641;-71
2023/02/09 01:09:45;;;;;;;18.60;7.20;;;-3.00;92.10;;;;;;5013702;28;80561;-70
2023/02/09 01:12:11;;;;;;;22.48;7.93;;;-3.00;92.00;;;;;;5015447;28;80935;-73
2023/02/09 01:14:37;;;;;;;22.15;7.20;;;-3.00;92.30;;;;;;5017306;28;80614;-73
2023/02/09 01:17:04;;;;;;;23.70;8.15;;;-3.00;92.10;;;;;;5024234;28;80438;-73
2023/02/09 01:19:30;;;;;;;18.15;7.10;;;-3.10;92.30;;;;;;5016315;28;80739;-73
2023/02/09 01:21:55;;;;;;;17.38;6.55;;;-3.10;92.40;;;;;;5015278;28;80748;-72
2023/02/09 01:24:21;;;;;;;16.15;6.20;;;-3.20;92.50;;;;;;5016849;28;81692;-70
2023/02/09 01:26:47;;;;;;;16.17;6.35;;;-3.20;92.40;;;;;;5016095;28;81151;-73
2023/02/09 01:29:15;;;;;;;19.48;6.82;;;-3.20;92.50;;;;;;5016386;28;81856;-71
2023/02/09 01:31:42;;;;;;;15.45;5.80;;;-3.20;92.50;;;;;;5016485;28;80458;-70
2023/02/09 01:34:12;;;;;;;22.58;6.90;;;-3.20;92.80;;;;;;5012477;28;80794;-71
2023/02/09 01:36:37;;;;;;;17.45;7.13;;;-3.10;92.70;;;;;;5015149;28;81400;-71
2023/02/09 01:39:04;;;;;;;23.17;7.90;;;-3.20;92.80;;;;;;5015893;28;81064;-73
2023/02/09 01:41:31;;;;;;;20.35;7.78;;;-3.10;93.00;;;;;;5016357;28;80791;-71
2023/02/09 01:43:59;;;;;;;24.88;8.18;;;-3.20;92.90;;;;;;5013572;28;80407;-70
2023/02/09 01:46:28;;;;;;;23.83;9.25;;;-3.20;93.30;;;;;;4995735;28;81496;-70
2023/02/09 01:49:06;;;;;;;25.63;9.05;;;-3.10;93.30;;;;;;5001520;28;81235;-70
2023/02/09 01:51:37;;;;;;;30.42;9.45;;;-3.20;93.50;;;;;;5007799;28;81023;-70
2023/02/09 01:54:12;;;;;;;23.27;8.48;;;-3.20;93.70;;;;;;4996901;28;80446;-71
2023/02/09 01:56:41;;;;;;;20.08;8.45;;;-3.20;93.70;;;;;;4996138;28;84443;-71
2023/02/09 01:59:08;;;;;;;28.05;9.77;;;-3.10;93.80;;;;;;4983240;28;80904;-70
2023/02/09 02:01:34;;;;;;;27.88;9.40;;;-3.10;93.70;;;;;;4989907;28;82471;-70
2023/02/09 02:04:00;;;;;;;25.70;9.32;;;-3.00;94.00;;;;;;4983219;28;80797;-70
2023/02/09 02:06:25;;;;;;;29.73;10.20;;;-3.00;93.60;;;;;;4984220;28;80897;-72
2023/02/09 02:09:08;;;;;;;23.80;9.98;;;-3.00;93.50;;;;;;4980803;28;83884;-70
2023/02/09 02:11:35;;;;;;;30.02;9.98;;;-3.00;93.30;;;;;;4981937;28;83094;-71
2023/02/09 02:14:01;;;;;;;25.77;9.68;;;-3.00;93.20;;;;;;4981710;28;82905;-71
2023/02/09 02:17:13;;;;;;;28.40;9.68;;;-3.00;93.20;;;;;;4993444;28;81077;-71
2023/02/09 02:20:14;;;;;;;27.63;10.00;;;-3.00;93.20;;;;;;4984207;28;82095;-71
2023/02/09 02:22:49;;;;;;;27.90;8.75;;;-3.10;93.10;;;;;;4981291;28;83464;-70
2023/02/09 02:25:33;;;;;;;24.52;8.88;;;-3.20;93.20;;;;;;4982750;28;80569;-72
2023/02/09 02:28:07;;;;;;;26.77;9.15;;;-3.20;93.30;;;;;;4980802;28;82812;-72
2023/02/09 02:31:02;;;;;;;25.27;9.75;;;-3.30;93.50;;;;;;4993371;28;80557;-73
2023/02/09 02:33:35;;;;;;;22.58;8.85;;;-3.40;93.70;;;;;;4981227;28;81854;-70
2023/02/09 02:36:29;;;;;;;25.50;9.43;;;-3.40;93.50;;;;;;4981840;28;80830;-71
2023/02/09 02:39:23;;;;;;;23.45;9.48;;;-3.50;93.80;;;;;;4983406;28;80981;-72
2023/02/09 02:45:30;;;;;;;26.83;9.32;;;-3.40;93.30;;;;;;4979781;28;80709;-73
2023/02/09 02:48:47;;;;;;;26.75;9.30;;;-3.50;93.40;;;;;;4979018;28;80894;-70
2023/02/09 02:51:23;;;;;;;26.67;9.10;;;-3.50;93.50;;;;;;4926002;28;81798;-72
2023/02/09 02:53:54;;;;;;;27.30;9.57;;;-3.50;93.40;;;;;;4982761;28;81783;-70
2023/02/09 02:56:23;;;;;;;;;;;-3.50;93.60;;;;;;4982820;28;80829;-70
2023/02/09 02:58:50;;;;;;;20.77;7.70;;;-3.60;93.20;;;;;;4992023;28;80385;-72
2023/02/09 03:01:21;;;;;;;21.48;8.43;;;-3.60;93.30;;;;;;4984956;28;82398;-72
2023/02/09 03:03:49;;;;;;;26.17;8.63;;;-3.60;93.40;;;;;;4981686;28;81351;-70
2023/02/09 03:06:16;;;;;;;30.40;9.20;;;-3.60;93.20;;;;;;4984582;28;80964;-70
2023/02/09 03:08:53;;;;;;;24.08;9.13;;;-3.70;93.30;;;;;;4982777;28;80680;-71
2023/02/09 03:11:22;;;;;;;22.73;8.52;;;-3.70;93.30;;;;;;4980003;28;81510;-70
2023/02/09 03:14:06;;;;;;;23.98;9.48;;;-3.70;93.20;;;;;;4990141;28;81976;-71
2023/02/09 03:16:47;;;;;;;25.20;8.68;;;-3.70;93.20;;;;;;4982180;28;81161;-73
2023/02/09 03:19:15;;;;;;;23.77;9.30;;;-3.70;93.00;;;;;;4981237;28;80230;-71
2023/02/09 03:21:59;;;;;;;22.35;8.30;;;-3.70;92.90;;;;;;4983628;28;81339;-71
2023/02/09 03:24:40;;;;;;;24.20;8.63;;;-3.70;92.80;;;;;;4989862;28;81050;-70
2023/02/09 03:27:11;;;;;;;23.88;9.27;;;-3.80;92.90;;;;;;4983883;28;80782;-71
2023/02/09 03:29:38;;;;;;;26.27;9.10;;;-3.80;93.20;;;;;;4983636;28;80663;-73
2023/02/09 03:32:05;;;;;;;22.52;8.63;;;-3.80;93.20;;;;;;4983028;28;81868;-73
2023/02/09 03:34:31;;;;;;;25.58;9.52;;;-3.90;93.40;;;;;;4979215;28;83100;-71
2023/02/09 03:36:57;;;;;;;26.73;9.68;;;-3.90;93.90;;;;;;4981046;28;80603;-71
2023/02/09 03:39:23;;;;;;;23.45;9.10;;;-3.90;94.00;;;;;;4983469;28;80294;-73
2023/02/09 03:41:49;;;;;;;28.25;10.27;;;-3.90;94.00;;;;;;4987401;28;81479;-73
2023/02/09 03:44:26;;;;;;;25.23;9.07;;;-3.90;94.30;;;;;;4980271;28;83286;-71
2023/02/09 03:46:53;;;;;;;;;;;-3.90;94.40;;;;;;4986708;28;83425;-71
2023/02/09 03:49:19;;;;;;;21.92;9.02;;;-3.90;94.40;;;;;;4987900;28;80662;-72
2023/02/09 03:51:44;;;;;;;24.60;9.15;;;-3.90;94.20;;;;;;4980233;28;81447;-72
2023/02/09 03:54:10;;;;;;;22.13;8.35;;;-3.90;94.10;;;;;;4980167;28;80708;-72
2023/02/09 03:56:36;;;;;;;22.95;9.05;;;-4.00;94.20;;;;;;4980618;28;80871;-72
2023/02/09 03:59:03;;;;;;;25.92;9.35;;;-3.90;94.00;;;;;;4981360;28;80888;-71
2023/02/09 04:01:32;;;;;;;26.88;9.65;;;-3.90;94.80;;;;;;4980414;28;82361;-71
2023/02/09 04:04:00;;;;;;;24.95;8.98;;;-3.90;94.60;;;;;;4985101;28;80639;-71
2023/02/09 04:06:25;;;;;;;28.70;9.38;;;-4.00;93.80;;;;;;4980300;28;82188;-72
2023/02/09 04:08:51;;;;;;;27.40;9.50;;;-4.00;94.30;;;;;;4980421;28;80450;-72
2023/02/09 04:11:17;;;;;;;24.85;9.35;;;-4.00;94.70;;;;;;4980458;28;81007;-72
2023/02/09 04:13:42;;;;;;;30.67;9.52;;;-4.10;94.60;;;;;;4978809;28;83101;-72
2023/02/09 04:16:08;;;;;;;25.42;8.95;;;-4.00;94.40;;;;;;4979058;28;81155;-73
2023/02/09 04:18:34;;;;;;;24.67;9.65;;;-4.00;94.10;;;;;;4979800;28;81122;-71
2023/02/09 04:20:59;;;;;;;24.05;8.95;;;-4.00;94.10;;;;;;4997393;28;81924;-71
2023/02/09 04:23:25;;;;;;;23.65;8.65;;;-4.00;93.80;;;;;;4986287;28;81095;-71
2023/02/09 04:25:50;;;;;;;26.40;9.77;;;-4.10;93.70;;;;;;4980758;28;81718;-71
2023/02/09 04:28:16;;;;;;;25.45;9.43;;;-4.10;93.90;;;;;;4980803;28;80511;-70
2023/02/09 04:30:42;;;;;;;26.60;10.00;;;-4.10;94.10;;;;;;4980785;28;81758;-70
2023/02/09 04:33:09;;;;;;;26.58;9.30;;;-4.10;94.50;;;;;;4984169;28;84115;-69
2023/02/09 04:35:36;;;;;;;28.42;10.13;;;-4.00;94.80;;;;;;4969305;28;82555;-70
2023/02/09 04:38:02;;;;;;;29.60;9.93;;;-4.00;94.50;;;;;;4973127;28;84290;-70
2023/02/09 04:40:28;;;;;;;24.33;8.80;;;-4.00;94.20;;;;;;4974302;28;82570;-72
2023/02/09 04:42:53;;;;;;;26.45;9.60;;;-4.00;94.20;;;;;;4976783;28;81791;-71
2023/02/09 04:45:19;;;;;;;27.88;10.07;;;-4.00;93.90;;;;;;4979414;28;80539;-70
2023/02/09 04:47:44;;;;;;;23.02;8.90;;;-4.00;94.20;;;;;;4978289;28;82769;-71
2023/02/09 04:50:10;;;;;;;30.95;10.60;;;-4.00;94.00;;;;;;4988357;28;82297;-71
2023/02/09 04:52:36;;;;;;;28.27;10.18;;;-4.00;94.20;;;;;;4974734;28;83896;-71
2023/02/09 04:55:02;;;;;;;32.05;10.48;;;-4.00;94.40;;;;;;4980098;28;83358;-71
2023/02/09 05:00:12;;;;;;;26.55;8.77;;;-4.10;93.80;;;;;;4981971;28;83423;-71
2023/02/09 05:02:38;;;;;;;25.58;9.20;;;-4.10;93.80;;;;;;4979682;28;82446;-71
2023/02/09 05:05:04;;;;;;;28.00;9.05;;;-4.00;93.90;;;;;;4978196;28;82450;-71
2023/02/09 05:07:29;;;;;;;28.20;9.98;;;-4.10;93.40;;;;;;4982333;28;82755;-70
2023/02/09 05:09:55;;;;;;;30.48;11.02;;;-4.10;93.90;;;;;;4980305;28;83242;-72
2023/02/09 05:12:21;;;;;;;27.48;10.02;;;-4.10;94.70;;;;;;4981782;28;83867;-73
2023/02/09 05:14:47;;;;;;;24.85;9.15;;;-4.10;95.40;;;;;;4976405;28;83425;-70
2023/02/09 05:17:13;;;;;;;26.70;9.85;;;-4.10;95.10;;;;;;4977807;28;84640;-70
2023/02/09 05:19:39;;;;;;;23.95;8.45;;;-4.10;95.30;;;;;;4978889;28;83000;-69
2023/02/09 05:22:04;;;;;;;22.98;8.50;;;-4.10;95.20;;;;;;4979296;28;82732;-70
2023/02/09 05:24:30;;;;;;;23.23;8.20;;;-4.10;95.30;;;;;;4978897;28;82697;-72
2023/02/09 05:26:56;;;;;;;21.98;8.00;;;-4.10;95.40;;;;;;4978779;28;83098;-70
2023/02/09 05:29:21;;;;;;;21.85;7.93;;;-4.00;95.40;;;;;;4978479;28;82552;-70
2023/02/09 05:31:47;;;;;;;20.17;7.47;;;-4.10;95.60;;;;;;4978299;28;82378;-71
2023/02/09 05:34:12;;;;;;;21.58;8.18;;;-4.00;95.60;;;;;;4979655;28;83616;-70
2023/02/09 05:36:38;;;;;;;22.90;7.65;;;-4.00;96.00;;;;;;4984287;28;82115;-70
2023/02/09 05:39:04;;;;;;;21.02;8.00;;;-4.00;95.60;;;;;;4989061;28;83863;-72
2023/02/09 05:44:13;;;;;;;;;;;-4.10;96.30;;;;;;4983460;28;82493;-71
2023/02/09 05:46:39;;;;;;;21.33;7.38;;;-4.00;96.50;;;;;;4982942;28;82134;-72
2023/02/09 05:49:05;;;;;;;18.42;7.40;;;-4.00;96.50;;;;;;4984124;28;82484;-75
2023/02/09 05:51:30;;;;;;;22.85;8.45;;;-4.00;96.70;;;;;;4981352;28;82676;-71
2023/02/09 05:53:56;;;;;;;23.02;8.02;;;-3.90;96.80;;;;;;4984595;28;82036;-71
2023/02/09 05:56:22;;;;;;;22.70;7.97;;;-3.90;96.60;;;;;;4977179;28;82479;-72
2023/02/09 05:58:48;;;;;;;23.73;8.43;;;-3.80;96.60;;;;;;4998687;28;83369;-72
2023/02/09 06:01:13;;;;;;;31.75;8.55;;;-3.80;96.30;;;;;;4985301;28;83677;-72
2023/02/09 06:03:39;;;;;;;23.05;8.75;;;-3.80;96.40;;;;;;4986143;28;82084;-72
2023/02/09 06:06:05;;;;;;;30.42;10.30;;;-3.80;96.30;;;;;;4988205;28;82380;-71
2023/02/09 06:08:30;;;;;;;27.15;9.80;;;-3.80;96.60;;;;;;4980406;28;84535;-73
2023/02/09 06:10:56;;;;;;;28.08;10.35;;;-3.70;96.90;;;;;;4985772;28;82724;-72
2023/02/09 06:13:22;;;;;;;29.10;10.25;;;-3.70;96.50;;;;;;4984637;28;83137;-72
2023/02/09 06:15:47;;;;;;;26.25;9.57;;;-3.60;96.20;;;;;;4981313;28;83341;-72
2023/02/09 06:18:13;;;;;;;26.45;9.27;;;-3.70;96.00;;;;;;4978056;28;82602;-72
2023/02/09 06:20:39;;;;;;;25.90;9.32;;;-3.60;95.90;;;;;;4969169;28;84089;-73
2023/02/09 06:23:04;;;;;;;24.35;9.50;;;-3.70;96.00;;;;;;4976854;28;83356;-72
2023/02/09 06:25:30;;;;;;;23.58;9.20;;;-3.60;95.80;;;;;;4970890;28;82185;-72
2023/02/09 06:27:55;;;;;;;25.08;8.70;;;-3.70;95.70;;;;;;4982962;28;82616;-73
2023/02/09 06:30:21;;;;;;;27.13;8.57;;;-3.70;95.50;;;;;;4988281;28;82325;-73
2023/02/09 06:32:47;;;;;;;24.17;8.60;;;-3.60;95.30;;;;;;4973104;28;83732;-71
2023/02/09 06:35:12;;;;;;;24.73;8.05;;;-3.60;95.10;;;;;;4975132;28;83782;-72
2023/02/09 06:37:38;;;;;;;25.13;8.52;;;-3.70;94.90;;;;;;4976082;28;82548;-72
2023/02/09 06:40:04;;;;;;;20.08;7.88;;;-3.70;94.80;;;;;;4970431;28;84717;-71
2023/02/09 06:42:42;;;;;;;23.40;8.30;;;-3.70;94.80;;;;;;4972500;28;82478;-71
2023/02/09 06:45:13;;;;;;;23.85;8.32;;;-3.70;95.40;;;;;;4979151;28;82260;-71
2023/02/09 06:47:43;;;;;;;21.27;7.43;;;-3.70;94.50;;;;;;4976556;28;84273;-71
2023/02/09 06:50:10;;;;;;;23.05;7.72;;;-3.60;94.40;;;;;;4980275;28;83886;-71
2023/02/09 06:52:36;;;;;;;20.58;7.30;;;-3.60;94.30;;;;;;4979571;28;81986;-71
2023/02/09 06:55:02;;;;;;;18.23;7.63;;;-3.60;94.10;;;;;;4982386;28;82576;-70
2023/02/09 06:57:28;;;;;;;19.10;7.38;;;-3.50;94.20;;;;;;4978741;28;83977;-71
2023/02/09 06:59:54;;;;;;;20.92;7.72;;;-3.50;93.90;;;;;;4980757;28;82319;-70
2023/02/09 07:02:20;;;;;;;20.45;7.15;;;-3.50;93.60;;;;;;4980886;28;82520;-71
2023/02/09 07:04:46;;;;;;;21.92;8.07;;;-3.50;93.40;;;;;;4981037;28;81945;-72
2023/02/09 07:07:11;;;;;;;21.25;7.90;;;-3.50;93.30;;;;;;4980105;28;82494;-71
2023/02/09 07:09:37;;;;;;;19.55;8.43;;;-3.30;93.20;;;;;;4977341;28;82544;-71
2023/02/09 07:12:03;;;;;;;19.40;7.03;;;-3.30;93.10;;;;;;4976033;28;83277;-70
2023/02/09 07:14:29;;;;;;;18.90;6.60;;;-3.20;93.10;;;;;;4994064;28;82310;-73
2023/02/09 07:16:54;;;;;;;17.27;6.95;;;-3.00;92.30;;;;;;4982248;28;84111;-71
2023/02/09 07:19:20;;;;;;;26.73;8.55;;;-2.80;92.00;;;;;;4981293;28;81982;-71
2023/02/09 07:21:47;;;;;;;22.05;8.10;;;-2.60;91.50;;;;;;4981467;28;82011;-71
2023/02/09 07:24:13;;;;;;;22.40;7.55;;;-2.40;90.90;;;;;;4980890;28;82373;-70
2023/02/09 07:26:39;;;;;;;25.00;8.40;;;-0.90;89.80;;;;;;4981920;28;82526;-71
2023/02/09 07:29:05;;;;;;;18.48;7.30;;;0.80;83.90;;;;;;4981942;28;82941;-70
2023/02/09 07:31:30;;;;;;;17.98;7.40;;;2.40;74.30;;;;;;4977315;28;82491;-72
2023/02/09 07:33:57;;;;;;;16.75;6.93;;;3.80;71.60;;;;;;4979470;28;82114;-74
2023/02/09 07:36:23;;;;;;;14.50;7.47;;;5.10;65.50;;;;;;4972523;28;83691;-71
2023/02/09 07:38:49;;;;;;;17.88;7.65;;;6.10;62.60;;;;;;4987802;28;83742;-70
2023/02/09 07:41:19;;;;;;;18.58;7.85;;;7.20;61.30;;;;;;4981690;28;82408;-71
2023/02/09 07:43:46;;;;;;;13.45;6.57;;;7.90;56.70;;;;;;4980356;28;82303;-70
2023/02/09 07:46:15;;;;;;;14.05;6.60;;;8.90;53.20;;;;;;4988266;28;83088;-72
2023/02/09 07:48:41;;;;;;;15.88;6.80;;;9.20;51.70;;;;;;4996327;28;83323;-72
2023/02/09 07:51:12;;;;;;;14.07;6.10;;;9.50;50.10;;;;;;4986865;28;82123;-72
2023/02/09 07:53:37;;;;;;;12.73;5.70;;;9.90;48.30;;;;;;4981343;28;81531;-72
2023/02/09 07:56:04;;;;;;;10.05;5.10;;;10.50;47.70;;;;;;4978059;28;84627;-73
2023/02/09 07:58:30;;;;;;;15.15;6.82;;;11.30;47.40;;;;;;4976691;28;82871;-74
2023/02/09 08:01:03;;;;;;;17.58;7.63;;;11.60;45.80;;;;;;4966361;28;83858;-69
2023/02/09 08:03:29;;;;;;;14.88;7.93;;;12.00;46.10;;;;;;4979994;28;82479;-72
2023/02/09 08:06:42;;;;;;;14.35;8.23;;;13.00;44.90;;;;;;4998241;28;82833;-72
2023/02/09 08:09:09;;;;;;;14.55;8.60;;;14.10;42.10;;;;;;4947333;28;82961;-72
2023/02/09 08:11:39;;;;;;;14.95;7.72;;;14.40;41.30;;;;;;4942690;28;83828;-72
2023/02/09 08:14:14;;;;;;;17.25;8.30;;;15.40;40.40;;;;;;4952541;28;82941;-73
2023/02/09 08:16:40;;;;;;;17.08;10.30;;;15.80;40.10;;;;;;4979000;28;82582;-72
2023/02/09 08:19:18;;;;;;;16.98;10.60;;;16.40;38.50;;;;;;4977321;28;83846;-74
2023/02/09 08:21:45;;;;;;;20.13;11.98;;;16.30;38.90;;;;;;4978421;28;83581;-73
2023/02/09 08:24:13;;;;;;;22.60;12.88;;;15.20;39.30;;;;;;4972112;28;83872;-72
2023/02/09 08:26:40;;;;;;;20.38;11.73;;;14.70;40.50;;;;;;4978156;28;83489;-72
2023/02/09 08:29:07;;;;;;;24.55;13.05;;;13.90;41.00;;;;;;4981249;28;83154;-71
2023/02/09 08:31:33;;;;;;;21.67;11.85;;;14.40;42.10;;;;;;4978462;28;82855;-73
2023/02/09 08:33:59;;;;;;;19.30;11.82;;;15.40;41.20;;;;;;4983202;28;82811;-71
2023/02/09 08:36:24;;;;;;;20.40;12.10;;;16.40;38.70;;;;;;4972826;28;84160;-72
2023/02/09 08:38:50;;;;;;;22.38;13.77;;;17.50;38.70;;;;;;4986075;28;83889;-72
2023/02/09 08:41:16;;;;;;;23.50;15.50;;;18.20;37.80;;;;;;4982106;28;85037;-73
2023/02/09 08:43:47;;;;;;;19.98;13.95;;;18.50;36.10;;;;;;4979927;28;82969;-73
2023/02/09 08:46:13;;;;;;;23.65;15.00;;;17.90;37.90;;;;;;4977677;28;83085;-73
2023/02/09 08:48:41;;;;;;;21.05;14.65;;;18.10;37.30;;;;;;4976707;28;83888;-74
2023/02/09 08:51:09;;;;;;;21.85;14.80;;;18.10;36.80;;;;;;4973463;28;84453;-72
2023/02/09 08:53:36;;;;;;;20.38;13.98;;;18.00;36.70;;;;;;4976030;28;83092;-72
2023/02/09 08:56:02;;;;;;;19.77;13.65;;;17.50;37.60;;;;;;4972178;28;82951;-72
2023/02/09 08:58:29;;;;;;;22.27;14.35;;;18.40;36.40;;;;;;4977874;28;83750;-73
2023/02/09 09:00:59;;;;;;;21.58;14.18;;;19.90;36.70;;;;;;4975468;28;84625;-72
2023/02/09 09:03:28;;;;;;;22.50;14.02;;;21.20;34.80;;;;;;4981223;28;83060;-73
2023/02/09 09:06:02;;;;;;;20.50;13.25;;;21.10;33.30;;;;;;4979965;28;83786;-74
2023/02/09 09:08:29;;;;;;;20.55;12.95;;;21.20;34.50;;;;;;4980410;28;83038;-72
2023/02/09 09:10:56;;;;;;;19.85;14.45;;;21.80;34.30;;;;;;4982573;28;83261;-72
2023/02/09 09:13:25;;;;;;;21.52;15.27;;;21.90;32.00;;;;;;4989766;28;83195;-72
2023/02/09 09:15:53;;;;;;;19.25;13.80;;;21.70;32.90;;;;;;4981555;28;83929;-74
2023/02/09 09:18:20;;;;;;;18.08;12.90;;;21.60;32.80;;;;;;4979865;28;83276;-73
2023/02/09 09:20:46;;;;;;;18.67;12.68;;;22.00;31.40;;;;;;4977129;28;83579;-69
2023/02/09 09:23:12;;;;;;;14.57;11.20;;;21.80;31.60;;;;;;4993345;28;83104;-73
2023/02/09 09:25:38;;;;;;;14.95;9.20;;;23.10;31.30;;;;;;4988078;28;83671;-73
2023/02/09 09:28:04;;;;;;;13.18;8.13;;;23.60;28.70;;;;;;4990129;28;82760;-73
2023/02/09 09:30:30;;;;;;;12.07;7.68;;;23.20;29.20;;;;;;4981845;28;82741;-72
2023/02/09 09:32:56;;;;;;;11.60;5.03;;;22.40;29.20;;;;;;4983614;28;81417;-72
2023/02/09 09:35:21;;;;;;;9.68;4.38;;;21.40;28.70;;;;;;4974944;28;83240;-72
2023/02/09 09:37:50;;;;;;;9.52;4.78;;;20.30;29.10;;;;;;4974421;28;82281;-71
2023/02/09 09:40:22;;;;;;;13.93;5.55;;;18.30;29.90;;;;;;4974501;28;83248;-73
2023/02/09 09:42:52;;;;;;;11.90;6.55;;;16.40;33.20;;;;;;4971907;28;83667;-72
2023/02/09 09:45:22;;;;;;;19.05;12.18;;;15.20;36.50;;;;;;4980671;28;82601;-71
2023/02/09 09:47:48;;;;;;;23.95;14.35;;;13.90;41.30;;;;;;4972610;28;83935;-72
2023/02/09 09:50:18;;;;;;;21.90;13.40;;;12.90;43.70;;;;;;4966761;28;83138;-72
2023/02/09 09:52:58;;;;;;;24.65;13.43;;;12.10;45.50;;;;;;4979144;28;83588;-72
2023/02/09 09:55:27;;;;;;;21.83;13.43;;;12.60;45.10;;;;;;4973396;28;83430;-73
2023/02/09 09:57:55;;;;;;;24.23;12.52;;;13.40;44.50;;;;;;4969276;28;83033;-72
2023/02/09 10:00:28;;;;;;;23.65;13.77;;;14.90;42.40;;;;;;4972852;28;82991;-72
2023/02/09 10:02:54;;;;;;;24.60;14.50;;;16.40;40.10;;;;;;4968948;28;82779;-72
2023/02/09 10:05:25;;;;;;;24.70;13.50;;;18.00;37.60;;;;;;4968162;28;84513;-72
2023/02/09 10:07:55;;;;;;;21.20;13.55;;;19.50;36.40;;;;;;4974889;28;83863;-72
2023/02/09 10:10:35;;;;;;;21.58;14.40;;;20.20;35.40;;;;;;4970489;28;83595;-73
2023/02/09 10:13:06;;;;;;;20.27;13.98;;;21.20;34.90;;;;;;4969950;28;84017;-72
2023/02/09 10:15:35;;;;;;;19.58;12.85;;;21.70;33.50;;;;;;4963669;28;83796;-70
2023/02/09 10:18:00;;;;;;;19.65;12.73;;;22.80;33.20;;;;;;4972168;28;85296;-72
2023/02/09 10:20:48;;;;;;;22.33;13.32;;;22.80;32.10;;;;;;4973542;28;84063;-74
2023/02/09 10:23:23;;;;;;;21.58;13.00;;;23.20;32.00;;;;;;4972818;28;83403;-75
2023/02/09 10:25:52;;;;;;;18.08;13.10;;;23.30;31.80;;;;;;4974126;28;83141;-72
2023/02/09 10:28:24;;;;;;;17.13;12.63;;;23.80;31.60;;;;;;4965531;28;83344;-72
2023/02/09 10:30:52;;;;;;;16.10;11.55;;;24.10;31.30;;;;;;4978350;28;83676;-71
2023/02/09 10:33:18;;;;;;;17.67;12.20;;;23.80;30.70;;;;;;4979615;28;84187;-72
2023/02/09 10:35:51;;;;;;;16.73;12.43;;;23.60;31.50;;;;;;4981038;28;82884;-71
2023/02/09 10:38:19;;;;;;;16.77;11.93;;;23.50;30.80;;;;;;4979219;28;83332;-71
2023/02/09 10:40:46;;;;;;;17.65;12.40;;;23.60;31.70;;;;;;4981921;28;82979;-73
2023/02/09 10:43:33;;;;;;;18.70;13.60;;;23.20;31.80;;;;;;4968017;28;82974;-72
2023/02/09 10:46:09;;;;;;;16.70;11.93;;;23.00;31.60;;;;;;4979200;28;83568;-73
2023/02/09 10:48:41;;;;;;;18.83;12.68;;;22.70;31.80;;;;;;4980485;28;83097;-72
2023/02/09 10:51:12;;;;;;;18.58;12.05;;;21.10;32.60;;;;;;4986214;28;83106;-72
2023/02/09 10:53:54;;;;;;;18.63;11.73;;;19.20;35.10;;;;;;4980388;28;82888;-73
2023/02/09 10:56:48;;;;;;;19.17;11.27;;;17.30;37.40;;;;;;4968992;28;83305;-71
2023/02/09 10:59:23;;;;;;;18.98;11.70;;;15.20;41.10;;;;;;4981519;28;83329;-72
2023/02/09 11:01:57;;;;;;;21.00;11.13;;;13.10;44.60;;;;;;4980044;28;83303;-72
2023/02/09 11:04:25;;;;;;;19.05;11.43;;;11.70;47.40;;;;;;4979924;28;84349;-71
2023/02/09 11:06:57;;;;;;;22.58;10.80;;;10.80;49.40;;;;;;4993436;28;83011;-72
2023/02/09 11:09:33;;;;;;;19.65;10.52;;;10.00;51.80;;;;;;4978925;28;83590;-73
2023/02/09 11:11:59;;;;;;;21.33;11.05;;;9.50;52.30;;;;;;4978136;28;83161;-74
2023/02/09 11:14:25;;;;;;;20.08;10.93;;;9.10;53.80;;;;;;4988783;28;83115;-73
2023/02/09 11:17:12;;;;;;;21.08;10.52;;;8.70;55.70;;;;;;4971128;28;83890;-72
2023/02/09 11:19:59;;;;;;;20.30;10.35;;;8.20;55.70;;;;;;4975194;28;82805;-72
2023/02/09 11:22:40;;;;;;;21.38;10.98;;;7.90;57.50;;;;;;4971311;28;83891;-74
2023/02/09 11:25:27;;;;;;;21.55;10.75;;;7.70;59.30;;;;;;4979944;28;83510;-71
2023/02/09 11:28:14;;;;;;;21.88;10.00;;;7.60;58.60;;;;;;4977394;28;82749;-71
2023/02/09 11:30:51;;;;;;;21.25;10.43;;;7.40;59.10;;;;;;4973542;28;84195;-72
2023/02/09 11:33:42;;;;;;;22.27;11.18;;;7.20;59.20;;;;;;4976548;28;83523;-71
2023/02/09 11:36:22;;;;;;;21.23;10.95;;;7.00;59.00;;;;;;4968080;28;83117;-70
2023/02/09 11:39:38;;;;;;;23.27;10.70;;;7.00;60.50;;;;;;4968856;28;85234;-72
2023/02/09 11:45:09;;;;;;;25.15;10.75;;;6.90;59.50;;;;;;4973751;28;83044;-71
2023/02/09 11:47:38;;;;;;;20.98;10.15;;;6.70;62.40;;;;;;4963323;28;83558;-73
2023/02/09 11:50:09;;;;;;;20.40;10.20;;;6.70;61.90;;;;;;4973574;28;83279;-71
2023/02/09 11:52:51;;;;;;;19.75;9.80;;;6.60;63.10;;;;;;4966350;28;83354;-73
2023/02/09 11:55:47;;;;;;;19.30;9.07;;;6.50;61.50;;;;;;4967846;28;83207;-76
2023/02/09 11:58:41;;;;;;;18.83;9.57;;;6.50;59.90;;;;;;4967085;28;82657;-71
2023/02/09 12:01:43;;;;;;;20.90;9.90;;;6.30;61.80;;;;;;4964177;28;83190;-71
2023/02/09 12:04:20;;;;;;;19.42;9.60;;;6.40;61.70;;;;;;4972555;28;83011;-72
2023/02/09 12:06:53;;;;;;;22.02;9.90;;;6.40;61.60;;;;;;4983861;28;82577;-71
2023/02/09 12:09:50;;;;;;;19.98;8.80;;;6.40;61.80;;;;;;4984156;28;81964;-71
2023/02/09 12:12:29;;;;;;;;;;;6.40;61.50;;;;;;4977930;28;83147;-71
2023/02/09 12:14:58;;;;;;;17.70;8.68;;;6.40;60.90;;;;;;4984967;28;82370;-72
2023/02/09 12:17:50;;;;;;;19.35;9.15;;;6.50;61.90;;;;;;4978372;28;84703;-71
2023/02/09 12:20:26;;;;;;;19.17;9.35;;;6.40;61.90;;;;;;4984663;28;82902;-72
2023/02/09 12:23:00;;;;;;;18.50;9.40;;;6.40;62.70;;;;;;4982348;28;83742;-72
2023/02/09 12:25:46;;;;;;;20.52;9.52;;;6.40;62.10;;;;;;4974573;28;82891;-72
2023/02/09 12:28:16;;;;;;;24.88;9.80;;;6.30;64.50;;;;;;4975874;28;81992;-71
2023/02/09 12:30:42;;;;;;;19.00;8.95;;;6.10;64.50;;;;;;4979160;28;82347;-72
2023/02/09 12:33:23;;;;;;;17.92;8.85;;;6.10;64.90;;;;;;4978775;28;82667;-72
2023/02/09 12:36:09;;;;;;;21.85;9.93;;;6.10;66.50;;;;;;4979027;28;82154;-73
2023/02/09 12:38:49;;;;;;;19.10;8.88;;;6.10;66.40;;;;;;4976984;28;83791;-71
2023/02/09 12:41:21;;;;;;;19.65;9.68;;;6.00;66.70;;;;;;4987585;28;82224;-73
2023/02/09 12:43:49;;;;;;;20.58;9.70;;;6.00;67.50;;;;;;4983718;28;84029;-72
2023/02/09 12:46:21;;;;;;;20.92;10.07;;;6.00;66.70;;;;;;4976829;28;83732;-72
2023/02/09 12:49:00;;;;;;;21.85;9.52;;;5.80;68.30;;;;;;4975630;28;83099;-72
2023/02/09 12:51:48;;;;;;;24.67;9.70;;;5.90;68.40;;;;;;4977414;28;82736;-71
2023/02/09 12:54:32;;;;;;;21.77;9.77;;;5.80;67.60;;;;;;4980338;28;82368;-71
2023/02/09 12:57:19;;;;;;;23.38;11.07;;;5.90;68.30;;;;;;4984505;28;82900;-72
2023/02/09 12:59:59;;;;;;;22.45;9.65;;;6.00;67.70;;;;;;4966628;28;83145;-72
2023/02/09 13:02:32;;;;;;;20.92;10.07;;;5.90;67.50;;;;;;4973652;28;81684;-72
2023/02/09 13:05:03;;;;;;;21.88;10.00;;;5.90;69.00;;;;;;4973691;28;84861;-71